sensor_id;sensor_type;location;lat;lon;timestamp;P1;durP1;ratioP1;P2;durP2;ratioP2
63394;SDS011;49531;-34.520;150.798;2022-07-22T00:00:05;3.15;;;0.90;;
63394;SDS011;49531;-34.520;150.798;2022-07-22T00:02:34;4.43;;;1.10;;
63394;SDS011;49531;-34.520;150.798;2022-07-22T00:05:02;3.47;;;1.10;;
63394;SDS011;49531;-34.520;150.798;2022-07-22T00:07:29;3.65;;;1.05;;
63394;SDS011;49531;-34.520;150.798;2022-07-22T00:09:56;3.40;;;1.02;;
63394;SDS011;49531;-34.520;150.798;2022-07-22T00:12:24;3.13;;;0.90;;
63394;SDS011;49531;-34.520;150.798;2022-07-22T00:14:51;1.80;;;1.00;;
63394;SDS011;49531;-34.520;150.798;2022-07-22T00:17:18;3.38;;;1.00;;
63394;SDS011;49531;-34.520;150.798;2022-07-22T00:19:45;3.88;;;1.23;;
63394;SDS011;49531;-34.520;150.798;2022-07-22T00:22:12;1.85;;;0.80;;
63394;SDS011;49531;-34.520;150.798;2022-07-22T00:24:39;2.67;;;1.00;;
63394;SDS011;49531;-34.520;150.798;2022-07-22T00:27:07;2.38;;;0.80;;
63394;SDS011;49531;-34.520;150.798;2022-07-22T00:29:34;4.47;;;0.70;;
63394;SDS011;49531;-34.520;150.798;2022-07-22T00:32:01;2.33;;;0.90;;
63394;SDS011;49531;-34.520;150.798;2022-07-22T00:34:28;2.38;;;1.00;;
63394;SDS011;49531;-34.520;150.798;2022-07-22T00:36:55;2.40;;;1.00;;
63394;SDS011;49531;-34.520;150.798;2022-07-22T00:39:22;2.50;;;0.88;;
63394;SDS011;49531;-34.520;150.798;2022-07-22T00:41:50;2.47;;;0.88;;
63394;SDS011;49531;-34.520;150.798;2022-07-22T00:44:17;7.53;;;0.80;;
63394;SDS011;49531;-34.520;150.798;2022-07-22T00:46:44;4.60;;;0.90;;
63394;SDS011;49531;-34.520;150.798;2022-07-22T00:49:11;3.13;;;0.90;;
63394;SDS011;49531;-34.520;150.798;2022-07-22T00:51:38;3.45;;;0.98;;
63394;SDS011;49531;-34.520;150.798;2022-07-22T00:54:06;3.28;;;0.80;;
63394;SDS011;49531;-34.520;150.798;2022-07-22T00:56:33;1.77;;;0.73;;
63394;SDS011;49531;-34.520;150.798;2022-07-22T00:59:03;5.45;;;1.15;;
63394;SDS011;49531;-34.520;150.798;2022-07-22T01:01:31;5.57;;;1.13;;
63394;SDS011;49531;-34.520;150.798;2022-07-22T01:03:58;4.72;;;1.17;;
63394;SDS011;49531;-34.520;150.798;2022-07-22T01:06:26;4.85;;;1.10;;
63394;SDS011;49531;-34.520;150.798;2022-07-22T01:08:54;3.45;;;1.10;;
63394;SDS011;49531;-34.520;150.798;2022-07-22T01:11:22;3.58;;;1.30;;
63394;SDS011;49531;-34.520;150.798;2022-07-22T01:13:49;4.60;;;1.45;;
63394;SDS011;49531;-34.520;150.798;2022-07-22T01:16:18;4.15;;;1.40;;
63394;SDS011;49531;-34.520;150.798;2022-07-22T01:18:45;2.67;;;1.10;;
63394;SDS011;49531;-34.520;150.798;2022-07-22T01:21:13;5.20;;;1.20;;
63394;SDS011;49531;-34.520;150.798;2022-07-22T01:23:42;5.88;;;1.33;;
63394;SDS011;49531;-34.520;150.798;2022-07-22T01:26:09;6.22;;;1.48;;
63394;SDS011;49531;-34.520;150.798;2022-07-22T01:28:37;4.05;;;1.10;;
63394;SDS011;49531;-34.520;150.798;2022-07-22T01:31:04;5.90;;;1.20;;
63394;SDS011;49531;-34.520;150.798;2022-07-22T01:33:32;5.60;;;1.10;;
63394;SDS011;49531;-34.520;150.798;2022-07-22T01:36:00;4.57;;;1.40;;
63394;SDS011;49531;-34.520;150.798;2022-07-22T01:38:28;4.40;;;1.33;;
63394;SDS011;49531;-34.520;150.798;2022-07-22T01:40:55;5.43;;;1.48;;
63394;SDS011;49531;-34.520;150.798;2022-07-22T01:43:22;4.43;;;1.40;;
63394;SDS011;49531;-34.520;150.798;2022-07-22T01:45:50;3.83;;;1.25;;
63394;SDS011;49531;-34.520;150.798;2022-07-22T01:48:20;4.85;;;1.30;;
63394;SDS011;49531;-34.520;150.798;2022-07-22T01:50:48;4.75;;;1.20;;
63394;SDS011;49531;-34.520;150.798;2022-07-22T01:53:15;3.88;;;1.27;;
63394;SDS011;49531;-34.520;150.798;2022-07-22T01:55:42;6.13;;;1.40;;
63394;SDS011;49531;-34.520;150.798;2022-07-22T01:58:09;2.78;;;1.30;;
63394;SDS011;49531;-34.520;150.798;2022-07-22T02:00:36;4.20;;;1.27;;
63394;SDS011;49531;-34.520;150.798;2022-07-22T02:03:03;5.20;;;1.50;;
63394;SDS011;49531;-34.520;150.798;2022-07-22T02:05:31;8.60;;;1.48;;
63394;SDS011;49531;-34.520;150.798;2022-07-22T02:08:02;6.53;;;1.27;;
63394;SDS011;49531;-34.520;150.798;2022-07-22T02:10:31;4.78;;;1.40;;
63394;SDS011;49531;-34.520;150.798;2022-07-22T02:12:58;5.85;;;1.30;;
63394;SDS011;49531;-34.520;150.798;2022-07-22T02:15:25;7.30;;;1.40;;
63394;SDS011;49531;-34.520;150.798;2022-07-22T02:17:53;7.13;;;1.40;;
63394;SDS011;49531;-34.520;150.798;2022-07-22T02:20:21;8.45;;;1.52;;
63394;SDS011;49531;-34.520;150.798;2022-07-22T02:22:48;6.85;;;1.15;;
63394;SDS011;49531;-34.520;150.798;2022-07-22T02:25:15;7.00;;;1.10;;
63394;SDS011;49531;-34.520;150.798;2022-07-22T02:27:42;7.03;;;1.40;;
63394;SDS011;49531;-34.520;150.798;2022-07-22T02:30:09;9.38;;;1.40;;
63394;SDS011;49531;-34.520;150.798;2022-07-22T02:32:37;6.32;;;1.23;;
63394;SDS011;49531;-34.520;150.798;2022-07-22T02:35:04;5.35;;;1.30;;
63394;SDS011;49531;-34.520;150.798;2022-07-22T02:37:32;5.32;;;1.13;;
63394;SDS011;49531;-34.520;150.798;2022-07-22T02:39:59;5.03;;;1.10;;
63394;SDS011;49531;-34.520;150.798;2022-07-22T02:42:26;7.60;;;1.40;;
63394;SDS011;49531;-34.520;150.798;2022-07-22T02:44:53;7.38;;;1.20;;
63394;SDS011;49531;-34.520;150.798;2022-07-22T02:47:20;7.60;;;1.20;;
63394;SDS011;49531;-34.520;150.798;2022-07-22T02:49:47;5.57;;;1.05;;
63394;SDS011;49531;-34.520;150.798;2022-07-22T02:52:15;4.68;;;1.00;;
63394;SDS011;49531;-34.520;150.798;2022-07-22T02:54:42;7.47;;;1.00;;
63394;SDS011;49531;-34.520;150.798;2022-07-22T02:57:09;5.90;;;0.90;;
63394;SDS011;49531;-34.520;150.798;2022-07-22T02:59:36;3.90;;;1.00;;
63394;SDS011;49531;-34.520;150.798;2022-07-22T03:02:03;6.15;;;0.90;;
63394;SDS011;49531;-34.520;150.798;2022-07-22T03:04:30;5.35;;;0.90;;
63394;SDS011;49531;-34.520;150.798;2022-07-22T03:06:57;4.45;;;1.25;;
63394;SDS011;49531;-34.520;150.798;2022-07-22T03:09:24;4.97;;;1.20;;
63394;SDS011;49531;-34.520;150.798;2022-07-22T03:11:51;4.50;;;0.95;;
63394;SDS011;49531;-34.520;150.798;2022-07-22T03:14:18;4.78;;;1.45;;
63394;SDS011;49531;-34.520;150.798;2022-07-22T03:16:45;8.77;;;1.10;;
63394;SDS011;49531;-34.520;150.798;2022-07-22T03:19:12;6.15;;;0.95;;
63394;SDS011;49531;-34.520;150.798;2022-07-22T03:21:39;9.45;;;1.08;;
63394;SDS011;49531;-34.520;150.798;2022-07-22T03:24:06;7.15;;;0.98;;
63394;SDS011;49531;-34.520;150.798;2022-07-22T03:26:34;5.68;;;1.08;;
63394;SDS011;49531;-34.520;150.798;2022-07-22T03:29:01;8.57;;;1.10;;
63394;SDS011;49531;-34.520;150.798;2022-07-22T03:31:28;5.80;;;1.00;;
63394;SDS011;49531;-34.520;150.798;2022-07-22T03:33:55;7.90;;;1.50;;
63394;SDS011;49531;-34.520;150.798;2022-07-22T03:36:22;9.45;;;1.58;;
63394;SDS011;49531;-34.520;150.798;2022-07-22T03:38:49;5.97;;;1.20;;
63394;SDS011;49531;-34.520;150.798;2022-07-22T03:41:16;10.15;;;1.30;;
63394;SDS011;49531;-34.520;150.798;2022-07-22T03:43:43;4.82;;;1.08;;
63394;SDS011;49531;-34.520;150.798;2022-07-22T03:46:10;12.05;;;1.55;;
63394;SDS011;49531;-34.520;150.798;2022-07-22T03:48:37;9.35;;;1.38;;
63394;SDS011;49531;-34.520;150.798;2022-07-22T03:51:04;8.70;;;1.30;;
63394;SDS011;49531;-34.520;150.798;2022-07-22T03:53:31;6.40;;;1.10;;
63394;SDS011;49531;-34.520;150.798;2022-07-22T03:55:59;6.07;;;1.15;;
63394;SDS011;49531;-34.520;150.798;2022-07-22T03:58:26;6.05;;;1.08;;
63394;SDS011;49531;-34.520;150.798;2022-07-22T04:00:54;7.40;;;1.20;;
63394;SDS011;49531;-34.520;150.798;2022-07-22T04:03:21;8.30;;;1.00;;
63394;SDS011;49531;-34.520;150.798;2022-07-22T04:05:48;4.45;;;1.10;;
63394;SDS011;49531;-34.520;150.798;2022-07-22T04:08:18;5.45;;;0.98;;
63394;SDS011;49531;-34.520;150.798;2022-07-22T04:10:45;6.80;;;0.90;;
63394;SDS011;49531;-34.520;150.798;2022-07-22T04:13:12;7.07;;;1.10;;
63394;SDS011;49531;-34.520;150.798;2022-07-22T04:15:39;7.82;;;1.17;;
63394;SDS011;49531;-34.520;150.798;2022-07-22T04:18:06;5.15;;;1.33;;
63394;SDS011;49531;-34.520;150.798;2022-07-22T04:20:33;7.22;;;1.52;;
63394;SDS011;49531;-34.520;150.798;2022-07-22T04:23:00;8.10;;;1.60;;
63394;SDS011;49531;-34.520;150.798;2022-07-22T04:25:28;6.95;;;1.70;;
63394;SDS011;49531;-34.520;150.798;2022-07-22T04:27:55;5.68;;;1.50;;
63394;SDS011;49531;-34.520;150.798;2022-07-22T04:30:22;6.88;;;1.70;;
63394;SDS011;49531;-34.520;150.798;2022-07-22T04:32:49;8.35;;;1.75;;
63394;SDS011;49531;-34.520;150.798;2022-07-22T04:35:16;10.45;;;1.73;;
63394;SDS011;49531;-34.520;150.798;2022-07-22T04:37:43;7.30;;;1.85;;
63394;SDS011;49531;-34.520;150.798;2022-07-22T04:40:10;6.70;;;1.70;;
63394;SDS011;49531;-34.520;150.798;2022-07-22T04:42:38;8.77;;;1.60;;
63394;SDS011;49531;-34.520;150.798;2022-07-22T04:45:05;6.47;;;1.50;;
63394;SDS011;49531;-34.520;150.798;2022-07-22T04:47:32;6.55;;;1.45;;
63394;SDS011;49531;-34.520;150.798;2022-07-22T04:49:59;6.75;;;1.30;;
63394;SDS011;49531;-34.520;150.798;2022-07-22T04:52:27;3.72;;;1.05;;
63394;SDS011;49531;-34.520;150.798;2022-07-22T04:54:54;6.65;;;1.25;;
63394;SDS011;49531;-34.520;150.798;2022-07-22T04:57:21;3.55;;;0.90;;
63394;SDS011;49531;-34.520;150.798;2022-07-22T04:59:48;4.82;;;1.00;;
63394;SDS011;49531;-34.520;150.798;2022-07-22T05:02:15;3.38;;;0.80;;
63394;SDS011;49531;-34.520;150.798;2022-07-22T05:04:42;3.10;;;0.90;;
63394;SDS011;49531;-34.520;150.798;2022-07-22T05:07:09;6.38;;;1.02;;
63394;SDS011;49531;-34.520;150.798;2022-07-22T05:09:36;5.35;;;1.30;;
63394;SDS011;49531;-34.520;150.798;2022-07-22T05:12:04;5.85;;;1.30;;
63394;SDS011;49531;-34.520;150.798;2022-07-22T05:14:31;3.45;;;1.40;;
63394;SDS011;49531;-34.520;150.798;2022-07-22T05:16:58;6.45;;;1.40;;
63394;SDS011;49531;-34.520;150.798;2022-07-22T05:19:25;6.25;;;1.27;;
63394;SDS011;49531;-34.520;150.798;2022-07-22T05:21:52;3.33;;;1.00;;
63394;SDS011;49531;-34.520;150.798;2022-07-22T05:24:19;3.78;;;1.00;;
63394;SDS011;49531;-34.520;150.798;2022-07-22T05:26:46;4.03;;;0.70;;
63394;SDS011;49531;-34.520;150.798;2022-07-22T05:29:13;9.25;;;1.02;;
63394;SDS011;49531;-34.520;150.798;2022-07-22T05:31:40;3.97;;;0.80;;
63394;SDS011;49531;-34.520;150.798;2022-07-22T05:34:07;4.25;;;1.00;;
63394;SDS011;49531;-34.520;150.798;2022-07-22T05:36:34;6.88;;;0.98;;
63394;SDS011;49531;-34.520;150.798;2022-07-22T05:39:01;3.83;;;0.80;;
63394;SDS011;49531;-34.520;150.798;2022-07-22T05:41:28;6.13;;;1.05;;
63394;SDS011;49531;-34.520;150.798;2022-07-22T05:43:55;4.35;;;1.23;;
63394;SDS011;49531;-34.520;150.798;2022-07-22T05:46:23;4.55;;;0.98;;
63394;SDS011;49531;-34.520;150.798;2022-07-22T05:48:50;4.50;;;0.90;;
63394;SDS011;49531;-34.520;150.798;2022-07-22T05:51:17;4.82;;;1.10;;
63394;SDS011;49531;-34.520;150.798;2022-07-22T05:53:44;4.82;;;1.17;;
63394;SDS011;49531;-34.520;150.798;2022-07-22T05:56:11;8.05;;;1.00;;
63394;SDS011;49531;-34.520;150.798;2022-07-22T05:58:39;10.20;;;1.33;;
63394;SDS011;49531;-34.520;150.798;2022-07-22T06:01:07;2.75;;;1.15;;
63394;SDS011;49531;-34.520;150.798;2022-07-22T06:03:34;6.03;;;0.90;;
63394;SDS011;49531;-34.520;150.798;2022-07-22T06:06:01;5.38;;;1.15;;
63394;SDS011;49531;-34.520;150.798;2022-07-22T06:08:30;5.68;;;1.20;;
63394;SDS011;49531;-34.520;150.798;2022-07-22T06:10:58;4.28;;;1.00;;
63394;SDS011;49531;-34.520;150.798;2022-07-22T06:13:25;5.95;;;1.50;;
63394;SDS011;49531;-34.520;150.798;2022-07-22T06:15:52;5.70;;;1.40;;
63394;SDS011;49531;-34.520;150.798;2022-07-22T06:18:19;3.58;;;1.20;;
63394;SDS011;49531;-34.520;150.798;2022-07-22T06:20:46;3.88;;;1.45;;
63394;SDS011;49531;-34.520;150.798;2022-07-22T06:23:13;4.90;;;1.58;;
63394;SDS011;49531;-34.520;150.798;2022-07-22T06:25:40;5.15;;;1.42;;
63394;SDS011;49531;-34.520;150.798;2022-07-22T06:28:08;3.67;;;1.50;;
63394;SDS011;49531;-34.520;150.798;2022-07-22T06:30:35;6.32;;;1.73;;
63394;SDS011;49531;-34.520;150.798;2022-07-22T06:33:02;5.13;;;1.33;;
63394;SDS011;49531;-34.520;150.798;2022-07-22T06:35:30;5.43;;;1.48;;
63394;SDS011;49531;-34.520;150.798;2022-07-22T06:37:57;3.13;;;1.00;;
63394;SDS011;49531;-34.520;150.798;2022-07-22T06:40:24;6.20;;;1.30;;
63394;SDS011;49531;-34.520;150.798;2022-07-22T06:42:51;3.88;;;0.90;;
63394;SDS011;49531;-34.520;150.798;2022-07-22T06:45:18;3.75;;;0.98;;
63394;SDS011;49531;-34.520;150.798;2022-07-22T06:47:45;4.75;;;0.90;;
63394;SDS011;49531;-34.520;150.798;2022-07-22T06:50:12;3.35;;;0.73;;
63394;SDS011;49531;-34.520;150.798;2022-07-22T06:52:39;5.22;;;0.93;;
63394;SDS011;49531;-34.520;150.798;2022-07-22T06:55:08;7.25;;;1.10;;
63394;SDS011;49531;-34.520;150.798;2022-07-22T06:57:36;6.85;;;0.90;;
63394;SDS011;49531;-34.520;150.798;2022-07-22T07:00:03;4.20;;;0.90;;
63394;SDS011;49531;-34.520;150.798;2022-07-22T07:02:35;5.95;;;0.90;;
63394;SDS011;49531;-34.520;150.798;2022-07-22T07:05:02;2.00;;;0.70;;
63394;SDS011;49531;-34.520;150.798;2022-07-22T07:07:29;3.92;;;0.80;;
63394;SDS011;49531;-34.520;150.798;2022-07-22T07:09:56;5.28;;;1.00;;
63394;SDS011;49531;-34.520;150.798;2022-07-22T07:12:23;5.03;;;1.10;;
63394;SDS011;49531;-34.520;150.798;2022-07-22T07:14:50;4.38;;;0.98;;
63394;SDS011;49531;-34.520;150.798;2022-07-22T07:17:17;4.85;;;0.98;;
63394;SDS011;49531;-34.520;150.798;2022-07-22T07:19:45;4.75;;;1.10;;
63394;SDS011;49531;-34.520;150.798;2022-07-22T07:22:12;3.40;;;0.88;;
63394;SDS011;49531;-34.520;150.798;2022-07-22T07:24:39;3.45;;;0.70;;
63394;SDS011;49531;-34.520;150.798;2022-07-22T07:27:06;4.80;;;0.70;;
63394;SDS011;49531;-34.520;150.798;2022-07-22T07:29:33;3.72;;;1.02;;
63394;SDS011;49531;-34.520;150.798;2022-07-22T07:32:00;4.07;;;0.90;;
63394;SDS011;49531;-34.520;150.798;2022-07-22T07:34:27;4.13;;;0.80;;
63394;SDS011;49531;-34.520;150.798;2022-07-22T07:36:54;5.88;;;0.70;;
63394;SDS011;49531;-34.520;150.798;2022-07-22T07:39:23;3.28;;;0.80;;
63394;SDS011;49531;-34.520;150.798;2022-07-22T07:41:50;4.25;;;1.20;;
63394;SDS011;49531;-34.520;150.798;2022-07-22T07:44:18;5.13;;;1.50;;
63394;SDS011;49531;-34.520;150.798;2022-07-22T07:46:45;6.30;;;1.63;;
63394;SDS011;49531;-34.520;150.798;2022-07-22T07:49:12;4.85;;;1.80;;
63394;SDS011;49531;-34.520;150.798;2022-07-22T07:51:39;5.32;;;1.70;;
63394;SDS011;49531;-34.520;150.798;2022-07-22T07:54:09;5.68;;;2.10;;
63394;SDS011;49531;-34.520;150.798;2022-07-22T07:56:36;6.38;;;2.38;;
63394;SDS011;49531;-34.520;150.798;2022-07-22T07:59:03;8.05;;;2.70;;
63394;SDS011;49531;-34.520;150.798;2022-07-22T08:01:30;9.38;;;2.40;;
63394;SDS011;49531;-34.520;150.798;2022-07-22T08:03:58;5.32;;;1.70;;
63394;SDS011;49531;-34.520;150.798;2022-07-22T08:06:25;6.45;;;1.80;;
63394;SDS011;49531;-34.520;150.798;2022-07-22T08:08:52;3.20;;;1.70;;
63394;SDS011;49531;-34.520;150.798;2022-07-22T08:11:19;5.18;;;1.77;;
63394;SDS011;49531;-34.520;150.798;2022-07-22T08:13:46;4.25;;;1.63;;
63394;SDS011;49531;-34.520;150.798;2022-07-22T08:16:13;7.55;;;1.98;;
63394;SDS011;49531;-34.520;150.798;2022-07-22T08:18:41;5.10;;;1.70;;
63394;SDS011;49531;-34.520;150.798;2022-07-22T08:21:08;3.70;;;1.50;;
63394;SDS011;49531;-34.520;150.798;2022-07-22T08:23:35;3.25;;;1.50;;
63394;SDS011;49531;-34.520;150.798;2022-07-22T08:26:02;3.25;;;1.33;;
63394;SDS011;49531;-34.520;150.798;2022-07-22T08:28:30;2.33;;;1.40;;
63394;SDS011;49531;-34.520;150.798;2022-07-22T08:30:57;4.10;;;1.50;;
63394;SDS011;49531;-34.520;150.798;2022-07-22T08:33:24;4.32;;;1.50;;
63394;SDS011;49531;-34.520;150.798;2022-07-22T08:35:51;3.50;;;1.60;;
63394;SDS011;49531;-34.520;150.798;2022-07-22T08:38:18;4.95;;;1.50;;
63394;SDS011;49531;-34.520;150.798;2022-07-22T08:40:45;2.78;;;1.40;;
63394;SDS011;49531;-34.520;150.798;2022-07-22T08:43:13;4.57;;;1.38;;
63394;SDS011;49531;-34.520;150.798;2022-07-22T08:45:40;3.97;;;1.40;;
63394;SDS011;49531;-34.520;150.798;2022-07-22T08:48:07;3.10;;;1.38;;
63394;SDS011;49531;-34.520;150.798;2022-07-22T08:50:34;3.65;;;1.35;;
63394;SDS011;49531;-34.520;150.798;2022-07-22T08:53:01;3.30;;;1.35;;
63394;SDS011;49531;-34.520;150.798;2022-07-22T08:55:30;2.65;;;1.10;;
63394;SDS011;49531;-34.520;150.798;2022-07-22T08:57:57;2.85;;;1.23;;
63394;SDS011;49531;-34.520;150.798;2022-07-22T09:00:24;4.25;;;1.30;;
63394;SDS011;49531;-34.520;150.798;2022-07-22T09:02:51;3.33;;;1.30;;
63394;SDS011;49531;-34.520;150.798;2022-07-22T09:05:18;3.25;;;1.10;;
63394;SDS011;49531;-34.520;150.798;2022-07-22T09:07:45;3.85;;;1.30;;
63394;SDS011;49531;-34.520;150.798;2022-07-22T09:10:14;2.67;;;1.10;;
63394;SDS011;49531;-34.520;150.798;2022-07-22T09:13:00;3.00;;;1.40;;
63394;SDS011;49531;-34.520;150.798;2022-07-22T09:15:30;3.28;;;1.20;;
63394;SDS011;49531;-34.520;150.798;2022-07-22T09:18:07;3.47;;;1.42;;
63394;SDS011;49531;-34.520;150.798;2022-07-22T09:20:35;4.40;;;1.50;;
63394;SDS011;49531;-34.520;150.798;2022-07-22T09:23:13;4.10;;;1.58;;
63394;SDS011;49531;-34.520;150.798;2022-07-22T09:25:43;3.35;;;1.52;;
63394;SDS011;49531;-34.520;150.798;2022-07-22T09:28:12;3.10;;;1.67;;
63394;SDS011;49531;-34.520;150.798;2022-07-22T09:30:51;2.30;;;1.30;;
63394;SDS011;49531;-34.520;150.798;2022-07-22T09:33:20;5.20;;;1.60;;
63394;SDS011;49531;-34.520;150.798;2022-07-22T09:35:49;3.42;;;1.40;;
63394;SDS011;49531;-34.520;150.798;2022-07-22T09:38:17;3.75;;;1.50;;
63394;SDS011;49531;-34.520;150.798;2022-07-22T09:40:53;3.08;;;1.50;;
63394;SDS011;49531;-34.520;150.798;2022-07-22T09:43:20;2.78;;;1.30;;
63394;SDS011;49531;-34.520;150.798;2022-07-22T09:45:48;2.83;;;1.35;;
63394;SDS011;49531;-34.520;150.798;2022-07-22T09:48:16;3.20;;;1.30;;
63394;SDS011;49531;-34.520;150.798;2022-07-22T09:50:46;4.20;;;1.30;;
63394;SDS011;49531;-34.520;150.798;2022-07-22T09:53:15;2.25;;;1.20;;
63394;SDS011;49531;-34.520;150.798;2022-07-22T09:55:49;3.22;;;1.05;;
63394;SDS011;49531;-34.520;150.798;2022-07-22T09:58:16;3.97;;;1.20;;
63394;SDS011;49531;-34.520;150.798;2022-07-22T10:00:43;2.92;;;1.42;;
63394;SDS011;49531;-34.520;150.798;2022-07-22T10:03:12;2.20;;;1.13;;
63394;SDS011;49531;-34.520;150.798;2022-07-22T10:05:43;4.47;;;1.10;;
63394;SDS011;49531;-34.520;150.798;2022-07-22T10:08:11;3.60;;;1.50;;
63394;SDS011;49531;-34.520;150.798;2022-07-22T10:10:38;2.55;;;1.40;;
63394;SDS011;49531;-34.520;150.798;2022-07-22T10:13:07;3.03;;;1.30;;
63394;SDS011;49531;-34.520;150.798;2022-07-22T10:15:35;2.08;;;1.17;;
63394;SDS011;49531;-34.520;150.798;2022-07-22T10:18:07;3.47;;;1.33;;
63394;SDS011;49531;-34.520;150.798;2022-07-22T10:20:39;2.63;;;1.23;;
63394;SDS011;49531;-34.520;150.798;2022-07-22T10:23:07;2.00;;;1.20;;
63394;SDS011;49531;-34.520;150.798;2022-07-22T10:25:51;2.05;;;1.08;;
63394;SDS011;49531;-34.520;150.798;2022-07-22T10:28:32;3.33;;;1.30;;
63394;SDS011;49531;-34.520;150.798;2022-07-22T10:31:20;3.47;;;1.27;;
63394;SDS011;49531;-34.520;150.798;2022-07-22T10:33:56;2.25;;;1.38;;
63394;SDS011;49531;-34.520;150.798;2022-07-22T10:36:30;2.47;;;1.00;;
63394;SDS011;49531;-34.520;150.798;2022-07-22T10:39:09;4.72;;;1.20;;
63394;SDS011;49531;-34.520;150.798;2022-07-22T10:41:38;2.30;;;1.05;;
63394;SDS011;49531;-34.520;150.798;2022-07-22T10:44:10;3.42;;;1.27;;
63394;SDS011;49531;-34.520;150.798;2022-07-22T10:46:53;4.43;;;1.17;;
63394;SDS011;49531;-34.520;150.798;2022-07-22T10:49:24;4.70;;;1.10;;
63394;SDS011;49531;-34.520;150.798;2022-07-22T10:55:00;3.05;;;1.13;;
63394;SDS011;49531;-34.520;150.798;2022-07-22T10:57:39;1.98;;;1.00;;
63394;SDS011;49531;-34.520;150.798;2022-07-22T11:00:06;3.05;;;0.90;;
63394;SDS011;49531;-34.520;150.798;2022-07-22T11:02:34;3.83;;;1.30;;
63394;SDS011;49531;-34.520;150.798;2022-07-22T11:05:04;3.95;;;1.17;;
63394;SDS011;49531;-34.520;150.798;2022-07-22T11:07:34;4.72;;;1.02;;
63394;SDS011;49531;-34.520;150.798;2022-07-22T11:10:08;2.10;;;0.90;;
63394;SDS011;49531;-34.520;150.798;2022-07-22T11:12:40;2.28;;;1.00;;
63394;SDS011;49531;-34.520;150.798;2022-07-22T11:15:07;3.45;;;0.95;;
63394;SDS011;49531;-34.520;150.798;2022-07-22T11:17:35;1.77;;;0.75;;
63394;SDS011;49531;-34.520;150.798;2022-07-22T11:20:05;1.40;;;0.85;;
63394;SDS011;49531;-34.520;150.798;2022-07-22T11:22:34;2.13;;;0.88;;
63394;SDS011;49531;-34.520;150.798;2022-07-22T11:25:06;3.95;;;1.00;;
63394;SDS011;49531;-34.520;150.798;2022-07-22T11:27:35;2.67;;;0.85;;
63394;SDS011;49531;-34.520;150.798;2022-07-22T11:33:12;2.50;;;0.80;;
63394;SDS011;49531;-34.520;150.798;2022-07-22T11:35:39;2.83;;;0.85;;
63394;SDS011;49531;-34.520;150.798;2022-07-22T11:38:06;2.20;;;0.80;;
63394;SDS011;49531;-34.520;150.798;2022-07-22T11:40:34;2.05;;;0.80;;
63394;SDS011;49531;-34.520;150.798;2022-07-22T11:43:02;3.22;;;0.90;;
63394;SDS011;49531;-34.520;150.798;2022-07-22T11:45:30;2.08;;;0.80;;
63394;SDS011;49531;-34.520;150.798;2022-07-22T11:47:57;1.58;;;0.70;;
63394;SDS011;49531;-34.520;150.798;2022-07-22T11:50:30;2.17;;;0.90;;
63394;SDS011;49531;-34.520;150.798;2022-07-22T11:53:01;3.33;;;1.00;;
63394;SDS011;49531;-34.520;150.798;2022-07-22T11:55:28;3.80;;;0.77;;
63394;SDS011;49531;-34.520;150.798;2022-07-22T11:57:56;3.33;;;0.90;;
63394;SDS011;49531;-34.520;150.798;2022-07-22T12:00:23;1.15;;;0.70;;
63394;SDS011;49531;-34.520;150.798;2022-07-22T12:02:50;2.33;;;0.90;;
63394;SDS011;49531;-34.520;150.798;2022-07-22T12:05:17;2.03;;;0.80;;
63394;SDS011;49531;-34.520;150.798;2022-07-22T12:07:47;3.30;;;0.80;;
63394;SDS011;49531;-34.520;150.798;2022-07-22T12:10:14;1.73;;;0.80;;
63394;SDS011;49531;-34.520;150.798;2022-07-22T12:12:43;1.20;;;0.60;;
63394;SDS011;49531;-34.520;150.798;2022-07-22T12:15:13;2.22;;;0.80;;
63394;SDS011;49531;-34.520;150.798;2022-07-22T12:17:40;1.88;;;0.88;;
63394;SDS011;49531;-34.520;150.798;2022-07-22T12:20:10;1.55;;;0.80;;
63394;SDS011;49531;-34.520;150.798;2022-07-22T12:22:44;1.85;;;0.85;;
63394;SDS011;49531;-34.520;150.798;2022-07-22T12:25:12;2.38;;;1.00;;
63394;SDS011;49531;-34.520;150.798;2022-07-22T12:27:39;2.08;;;0.85;;
63394;SDS011;49531;-34.520;150.798;2022-07-22T12:30:15;1.95;;;0.80;;
63394;SDS011;49531;-34.520;150.798;2022-07-22T12:32:46;2.08;;;0.80;;
63394;SDS011;49531;-34.520;150.798;2022-07-22T12:35:14;1.92;;;0.90;;
63394;SDS011;49531;-34.520;150.798;2022-07-22T12:37:45;2.90;;;0.90;;
63394;SDS011;49531;-34.520;150.798;2022-07-22T12:40:20;2.90;;;0.80;;
63394;SDS011;49531;-34.520;150.798;2022-07-22T12:45:36;2.60;;;0.82;;
63394;SDS011;49531;-34.520;150.798;2022-07-22T12:48:05;2.83;;;1.10;;
63394;SDS011;49531;-34.520;150.798;2022-07-22T12:50:35;1.73;;;0.70;;
63394;SDS011;49531;-34.520;150.798;2022-07-22T12:55:43;3.63;;;1.70;;
63394;SDS011;49531;-34.520;150.798;2022-07-22T12:58:13;4.18;;;1.50;;
63394;SDS011;49531;-34.520;150.798;2022-07-22T13:00:42;5.57;;;1.50;;
63394;SDS011;49531;-34.520;150.798;2022-07-22T13:03:17;3.13;;;1.30;;
63394;SDS011;49531;-34.520;150.798;2022-07-22T13:05:49;3.00;;;1.25;;
63394;SDS011;49531;-34.520;150.798;2022-07-22T13:08:18;2.77;;;1.40;;
63394;SDS011;49531;-34.520;150.798;2022-07-22T13:10:45;5.15;;;1.48;;
63394;SDS011;49531;-34.520;150.798;2022-07-22T13:13:12;3.30;;;1.50;;
63394;SDS011;49531;-34.520;150.798;2022-07-22T13:15:39;2.90;;;1.38;;
63394;SDS011;49531;-34.520;150.798;2022-07-22T13:18:06;5.15;;;1.70;;
63394;SDS011;49531;-34.520;150.798;2022-07-22T13:20:33;3.08;;;1.45;;
63394;SDS011;49531;-34.520;150.798;2022-07-22T13:23:00;2.58;;;1.40;;
63394;SDS011;49531;-34.520;150.798;2022-07-22T13:25:27;3.50;;;1.42;;
63394;SDS011;49531;-34.520;150.798;2022-07-22T13:27:56;3.15;;;1.60;;
63394;SDS011;49531;-34.520;150.798;2022-07-22T13:30:23;3.25;;;1.48;;
63394;SDS011;49531;-34.520;150.798;2022-07-22T13:32:50;2.83;;;1.60;;
63394;SDS011;49531;-34.520;150.798;2022-07-22T13:35:18;2.75;;;1.58;;
63394;SDS011;49531;-34.520;150.798;2022-07-22T13:37:45;4.22;;;1.60;;
63394;SDS011;49531;-34.520;150.798;2022-07-22T13:40:12;2.97;;;1.40;;
63394;SDS011;49531;-34.520;150.798;2022-07-22T13:42:40;2.58;;;1.50;;
63394;SDS011;49531;-34.520;150.798;2022-07-22T13:45:07;2.97;;;1.50;;
63394;SDS011;49531;-34.520;150.798;2022-07-22T13:47:38;2.97;;;1.50;;
63394;SDS011;49531;-34.520;150.798;2022-07-22T13:50:06;3.45;;;1.58;;
63394;SDS011;49531;-34.520;150.798;2022-07-22T13:52:34;3.63;;;1.50;;
63394;SDS011;49531;-34.520;150.798;2022-07-22T13:55:01;2.55;;;1.50;;
63394;SDS011;49531;-34.520;150.798;2022-07-22T13:57:28;3.13;;;1.30;;
63394;SDS011;49531;-34.520;150.798;2022-07-22T13:59:55;3.33;;;1.40;;
63394;SDS011;49531;-34.520;150.798;2022-07-22T14:02:23;3.47;;;1.40;;
63394;SDS011;49531;-34.520;150.798;2022-07-22T14:04:50;2.47;;;1.17;;
63394;SDS011;49531;-34.520;150.798;2022-07-22T14:07:17;2.53;;;1.30;;
63394;SDS011;49531;-34.520;150.798;2022-07-22T14:09:44;2.60;;;1.30;;
63394;SDS011;49531;-34.520;150.798;2022-07-22T14:12:11;1.67;;;1.10;;
63394;SDS011;49531;-34.520;150.798;2022-07-22T14:14:39;3.30;;;1.40;;
63394;SDS011;49531;-34.520;150.798;2022-07-22T14:17:06;3.80;;;1.30;;
63394;SDS011;49531;-34.520;150.798;2022-07-22T14:19:33;2.22;;;1.10;;
63394;SDS011;49531;-34.520;150.798;2022-07-22T14:22:00;2.20;;;1.10;;
63394;SDS011;49531;-34.520;150.798;2022-07-22T14:24:27;3.30;;;1.23;;